Time,TemperatureF,DewpointF,PressureIn,WindDirection,WindDirectionDegrees,WindSpeedMPH,WindSpeedGustMPH,Humidity,HourlyPrecipIn,Conditions,Clouds,dailyrainin,SolarRadiationWatts/m^2,SoftwareType,DateUTC
2013-03-19 00:13:00,40.0,40.0,-100.00,NW,308,3.0,7.0,99,0.00,,,0.13,0.000000,,2013-03-19 04:13:00,
2013-03-19 00:23:00,40.0,40.0,-100.00,NW,308,3.0,7.0,99,0.00,,,0.13,0.000000,,2013-03-19 04:23:00,
2013-03-19 00:34:00,40.0,40.0,-100.00,NW,308,3.0,7.0,99,0.00,,,0.13,0.000000,,2013-03-19 04:34:00,
2013-03-19 00:43:00,40.0,40.0,-100.00,NW,308,3.0,7.0,99,0.00,,,0.13,0.000000,,2013-03-19 04:43:00,
2013-03-19 00:52:00,39.0,39.0,-100.00,East,80,3.0,7.0,99,0.00,,,0.13,0.000000,,2013-03-19 04:52:00,
2013-03-19 01:22:00,39.0,39.0,-100.00,East,80,3.0,7.0,99,0.00,,,0.13,0.000000,,2013-03-19 05:22:00,
2013-03-19 01:32:00,39.0,39.0,-100.00,East,80,3.0,7.0,99,0.00,,,0.13,0.000000,,2013-03-19 05:32:00,
2013-03-19 01:43:00,39.0,39.0,-100.00,East,80,3.0,7.0,99,0.00,,,0.13,0.000000,,2013-03-19 05:43:00,
2013-03-19 01:52:00,38.0,38.0,-100.00,SE,138,1.0,10.0,99,0.00,,,0.12,0.000000,,2013-03-19 05:52:00,
2013-03-19 02:12:00,38.0,38.0,-100.00,SE,138,1.0,10.0,99,0.00,,,0.12,0.000000,,2013-03-19 06:12:00,
2013-03-19 02:22:00,38.0,38.0,-100.00,SE,138,1.0,10.0,99,0.00,,,0.12,0.000000,,2013-03-19 06:22:00,
2013-03-19 02:32:00,38.0,38.0,-100.00,SE,138,1.0,10.0,99,0.00,,,0.12,0.000000,,2013-03-19 06:32:00,
2013-03-19 02:42:00,38.0,38.0,-100.00,SE,138,1.0,10.0,99,0.00,,,0.12,0.000000,,2013-03-19 06:42:00,
2013-03-19 02:52:00,39.0,38.0,-100.00,East,101,3.0,8.0,98,0.00,,,0.12,0.000000,,2013-03-19 06:52:00,
2013-03-19 03:12:00,39.0,38.0,-100.00,East,101,3.0,8.0,98,0.00,,,0.12,0.000000,,2013-03-19 07:12:00,
2013-03-19 03:22:00,39.0,38.0,-100.00,East,101,3.0,8.0,98,0.00,,,0.12,0.000000,,2013-03-19 07:22:00,
2013-03-19 03:32:00,39.0,38.0,-100.00,East,101,3.0,8.0,98,0.00,,,0.12,0.000000,,2013-03-19 07:32:00,
2013-03-19 03:42:00,39.0,38.0,-100.00,East,101,3.0,8.0,98,0.00,,,0.12,0.000000,,2013-03-19 07:42:00,
2013-03-19 03:52:00,39.0,38.0,-100.00,East,98,0.0,5.0,98,0.01,,,0.13,0.000000,,2013-03-19 07:52:00,
2013-03-19 04:13:00,39.0,38.0,-100.00,East,98,0.0,5.0,98,0.01,,,0.13,0.000000,,2013-03-19 08:13:00,
2013-03-19 04:22:00,39.0,38.0,-100.00,East,98,0.0,5.0,98,0.01,,,0.13,0.000000,,2013-03-19 08:22:00,
2013-03-19 04:32:00,39.0,38.0,-100.00,East,98,0.0,5.0,98,0.01,,,0.13,0.000000,,2013-03-19 08:32:00,
2013-03-19 04:42:00,39.0,38.0,-100.00,East,98,0.0,5.0,98,0.01,,,0.13,0.000000,,2013-03-19 08:42:00,
2013-03-19 04:52:00,39.0,39.0,-100.00,ESE,113,1.0,4.0,99,0.00,,,0.12,0.000000,,2013-03-19 08:52:00,
2013-03-19 05:12:00,39.0,39.0,-100.00,ESE,113,1.0,4.0,99,0.00,,,0.12,0.000000,,2013-03-19 09:12:00,
2013-03-19 05:23:00,39.0,39.0,-100.00,ESE,113,1.0,4.0,99,0.00,,,0.12,0.000000,,2013-03-19 09:23:00,
2013-03-19 05:33:00,39.0,39.0,-100.00,ESE,113,1.0,4.0,99,0.00,,,0.12,0.000000,,2013-03-19 09:33:00,
2013-03-19 05:43:00,39.0,39.0,-100.00,ESE,113,1.0,4.0,99,0.00,,,0.12,0.000000,,2013-03-19 09:43:00,
2013-03-19 05:52:00,38.0,37.0,-100.00,North,358,0.0,10.0,98,0.00,,,0.12,0.000000,,2013-03-19 09:52:00,
2013-03-19 06:23:00,38.0,37.0,-100.00,North,358,0.0,10.0,98,0.00,,,0.12,0.000000,,2013-03-19 10:23:00,
2013-03-19 06:33:00,38.0,37.0,-100.00,North,358,0.0,10.0,98,0.00,,,0.12,0.000000,,2013-03-19 10:33:00,
2013-03-19 06:42:00,38.0,37.0,-100.00,North,358,0.0,10.0,98,0.00,,,0.12,0.000000,,2013-03-19 10:42:00,
2013-03-19 06:52:00,40.0,39.0,-100.00,NNW,332,0.0,2.0,98,0.00,,,0.11,0.000000,,2013-03-19 10:52:00,
2013-03-19 07:22:00,40.0,39.0,-100.00,NNW,332,0.0,2.0,98,0.00,,,0.11,0.000000,,2013-03-19 11:22:00,
2013-03-19 07:33:00,40.0,39.0,-100.00,NNW,332,0.0,2.0,98,0.00,,,0.11,0.000000,,2013-03-19 11:33:00,
2013-03-19 07:43:00,40.0,39.0,-100.00,NNW,332,0.0,2.0,98,0.00,,,0.11,0.000000,,2013-03-19 11:43:00,
2013-03-19 07:52:00,39.0,39.0,-100.00,NNE,24,0.0,4.0,99,0.00,,,0.11,5.000000,,2013-03-19 11:52:00,
2013-03-19 08:12:00,39.0,39.0,-100.00,NNE,24,0.0,4.0,99,0.00,,,0.11,5.000000,,2013-03-19 12:12:00,
2013-03-19 08:23:00,39.0,39.0,-100.00,NNE,24,0.0,4.0,99,0.00,,,0.11,5.000000,,2013-03-19 12:23:00,
2013-03-19 08:33:00,39.0,39.0,-100.00,NNE,24,0.0,4.0,99,0.00,,,0.11,5.000000,,2013-03-19 12:33:00,
2013-03-19 08:43:00,39.0,39.0,-100.00,NNE,24,0.0,4.0,99,0.00,,,0.11,5.000000,,2013-03-19 12:43:00,
2013-03-19 08:52:00,42.0,42.0,-100.00,NE,47,3.0,7.0,99,0.00,,,0.10,57.000000,,2013-03-19 12:52:00,
2013-03-19 09:23:00,42.0,42.0,-100.00,NE,47,3.0,7.0,99,0.00,,,0.10,57.000000,,2013-03-19 13:23:00,
2013-03-19 09:33:00,42.0,42.0,-100.00,NE,47,3.0,7.0,99,0.00,,,0.10,57.000000,,2013-03-19 13:33:00,
2013-03-19 09:42:00,42.0,42.0,-100.00,NE,47,3.0,7.0,99,0.00,,,0.10,57.000000,,2013-03-19 13:42:00,
2013-03-19 09:52:00,46.0,45.0,-100.00,NE,53,3.0,9.0,97,0.00,,,0.10,184.000000,,2013-03-19 13:52:00,
2013-03-19 10:12:00,46.0,45.0,-100.00,NE,53,3.0,9.0,97,0.00,,,0.10,184.000000,,2013-03-19 14:12:00,
2013-03-19 10:22:00,46.0,45.0,-100.00,NE,53,3.0,9.0,97,0.00,,,0.10,184.000000,,2013-03-19 14:22:00,
2013-03-19 10:32:00,46.0,45.0,-100.00,NE,53,3.0,9.0,97,0.00,,,0.10,184.000000,,2013-03-19 14:32:00,
2013-03-19 10:42:00,46.0,45.0,-100.00,NE,53,3.0,9.0,97,0.00,,,0.10,184.000000,,2013-03-19 14:42:00,
2013-03-19 10:52:00,52.0,45.0,-100.00,ENE,78,5.0,10.0,76,0.00,,,0.10,367.000000,,2013-03-19 14:52:00,
2013-03-19 11:23:00,52.0,45.0,-100.00,ENE,78,5.0,10.0,76,0.00,,,0.10,367.000000,,2013-03-19 15:23:00,
2013-03-19 11:34:00,52.0,45.0,-100.00,ENE,78,5.0,10.0,76,0.00,,,0.10,367.000000,,2013-03-19 15:34:00,
2013-03-19 11:44:00,52.0,45.0,-100.00,ENE,78,5.0,10.0,76,0.00,,,0.10,367.000000,,2013-03-19 15:44:00,
2013-03-19 12:24:00,56.0,41.0,-100.00,ENE,68,5.0,13.0,57,0.00,,,0.10,666.000000,,2013-03-19 16:24:00,
2013-03-19 12:34:00,56.0,41.0,-100.00,ENE,68,5.0,13.0,57,0.00,,,0.10,666.000000,,2013-03-19 16:34:00,
2013-03-19 12:44:00,56.0,41.0,-100.00,ENE,68,5.0,13.0,57,0.00,,,0.10,666.000000,,2013-03-19 16:44:00,
2013-03-19 12:52:00,60.0,34.0,-100.00,East,83,6.0,15.0,38,0.00,,,0.10,891.000000,,2013-03-19 16:52:00,
2013-03-19 13:24:00,60.0,34.0,-100.00,East,83,6.0,15.0,38,0.00,,,0.10,891.000000,,2013-03-19 17:24:00,
2013-03-19 13:34:00,60.0,34.0,-100.00,East,83,6.0,15.0,38,0.00,,,0.10,891.000000,,2013-03-19 17:34:00,
2013-03-19 13:44:00,60.0,34.0,-100.00,East,83,6.0,15.0,38,0.00,,,0.10,891.000000,,2013-03-19 17:44:00,
2013-03-19 13:52:00,64.0,34.0,-100.00,East,86,6.0,15.0,32,0.00,,,0.10,953.000000,,2013-03-19 17:52:00,
2013-03-19 14:14:00,64.0,34.0,-100.00,East,86,6.0,15.0,32,0.00,,,0.10,953.000000,,2013-03-19 18:14:00,
2013-03-19 14:23:00,64.0,34.0,-100.00,East,86,6.0,15.0,32,0.00,,,0.10,953.000000,,2013-03-19 18:23:00,
2013-03-19 14:34:00,64.0,34.0,-100.00,East,86,6.0,15.0,32,0.00,,,0.10,953.000000,,2013-03-19 18:34:00,
2013-03-19 14:43:00,64.0,34.0,-100.00,East,86,6.0,15.0,32,0.00,,,0.10,953.000000,,2013-03-19 18:43:00,
2013-03-19 14:52:00,65.0,27.0,-100.00,ENE,60,6.0,16.0,24,0.00,,,0.10,945.000000,,2013-03-19 18:52:00,
2013-03-19 15:23:00,65.0,27.0,-100.00,ENE,60,6.0,16.0,24,0.00,,,0.10,945.000000,,2013-03-19 19:23:00,
2013-03-19 15:33:00,65.0,27.0,-100.00,ENE,60,6.0,16.0,24,0.00,,,0.10,945.000000,,2013-03-19 19:33:00,
2013-03-19 15:43:00,65.0,27.0,-100.00,ENE,60,6.0,16.0,24,0.00,,,0.10,945.000000,,2013-03-19 19:43:00,
2013-03-19 15:52:00,67.0,26.0,-100.00,NE,48,5.0,16.0,21,0.00,,,0.10,863.000000,,2013-03-19 19:52:00,
2013-03-19 16:23:00,67.0,26.0,-100.00,NE,48,5.0,16.0,21,0.00,,,0.10,863.000000,,2013-03-19 20:23:00,
2013-03-19 16:33:00,67.0,26.0,-100.00,NE,48,5.0,16.0,21,0.00,,,0.10,863.000000,,2013-03-19 20:33:00,
2013-03-19 16:43:00,67.0,26.0,-100.00,NE,48,5.0,16.0,21,0.00,,,0.10,863.000000,,2013-03-19 20:43:00,
2013-03-19 16:52:00,70.0,25.0,-100.00,NE,41,4.0,18.0,18,0.00,,,0.10,711.000000,,2013-03-19 20:52:00,
2013-03-19 17:23:00,70.0,25.0,-100.00,NE,41,4.0,18.0,18,0.00,,,0.10,711.000000,,2013-03-19 21:23:00,
2013-03-19 17:34:00,70.0,25.0,-100.00,NE,41,4.0,18.0,18,0.00,,,0.10,711.000000,,2013-03-19 21:34:00,
2013-03-19 17:43:00,70.0,25.0,-100.00,NE,41,4.0,18.0,18,0.00,,,0.10,711.000000,,2013-03-19 21:43:00,
2013-03-19 17:52:00,67.0,19.0,-100.00,NE,48,5.0,14.0,16,0.00,,,0.10,502.000000,,2013-03-19 21:52:00,
2013-03-19 18:24:00,67.0,19.0,-100.00,NE,48,5.0,14.0,16,0.00,,,0.10,502.000000,,2013-03-19 22:24:00,
2013-03-19 18:33:00,67.0,19.0,-100.00,NE,48,5.0,14.0,16,0.00,,,0.10,502.000000,,2013-03-19 22:33:00,
2013-03-19 18:43:00,67.0,19.0,-100.00,NE,48,5.0,14.0,16,0.00,,,0.10,502.000000,,2013-03-19 22:43:00,
2013-03-19 18:52:00,62.0,14.0,-100.00,NE,51,5.0,20.0,15,0.00,,,0.10,232.000000,,2013-03-19 22:52:00,
2013-03-19 19:22:00,62.0,14.0,-100.00,NE,51,5.0,20.0,15,0.00,,,0.10,232.000000,,2013-03-19 23:22:00,
2013-03-19 19:33:00,62.0,14.0,-100.00,NE,51,5.0,20.0,15,0.00,,,0.10,232.000000,,2013-03-19 23:33:00,
2013-03-19 19:43:00,62.0,14.0,-100.00,NE,51,5.0,20.0,15,0.00,,,0.10,232.000000,,2013-03-19 23:43:00,
2013-03-19 19:52:00,57.0,14.0,-100.00,NE,50,3.0,19.0,18,0.00,,,0.10,9.000000,,2013-03-19 23:52:00,
2013-03-19 20:22:00,57.0,14.0,-100.00,NE,50,3.0,19.0,18,0.00,,,0.10,9.000000,,2013-03-20 00:22:00,
2013-03-19 20:33:00,57.0,14.0,-100.00,NE,50,3.0,19.0,18,0.00,,,0.10,9.000000,,2013-03-20 00:33:00,
2013-03-19 20:42:00,57.0,14.0,-100.00,NE,50,3.0,19.0,18,0.00,,,0.10,9.000000,,2013-03-20 00:42:00,
2013-03-19 20:52:00,54.0,19.0,-100.00,ENE,57,2.0,7.0,25,0.00,,,0.10,0.000000,,2013-03-20 00:52:00,
2013-03-19 21:12:00,54.0,19.0,-100.00,ENE,57,2.0,7.0,25,0.00,,,0.10,0.000000,,2013-03-20 01:12:00,
2013-03-19 21:23:00,54.0,19.0,-100.00,ENE,57,2.0,7.0,25,0.00,,,0.10,0.000000,,2013-03-20 01:23:00,
2013-03-19 21:32:00,54.0,19.0,-100.00,ENE,57,2.0,7.0,25,0.00,,,0.10,0.000000,,2013-03-20 01:32:00,
2013-03-19 21:43:00,54.0,19.0,-100.00,ENE,57,2.0,7.0,25,0.00,,,0.10,0.000000,,2013-03-20 01:43:00,
2013-03-19 21:52:00,53.0,15.0,-100.00,ENE,70,3.0,10.0,22,0.00,,,0.09,0.000000,,2013-03-20 01:52:00,
2013-03-19 22:12:00,53.0,15.0,-100.00,ENE,70,3.0,10.0,22,0.00,,,0.09,0.000000,,2013-03-20 02:12:00,
2013-03-19 22:23:00,53.0,15.0,-100.00,ENE,70,3.0,10.0,22,0.00,,,0.09,0.000000,,2013-03-20 02:23:00,
2013-03-19 22:32:00,53.0,15.0,-100.00,ENE,70,3.0,10.0,22,0.00,,,0.09,0.000000,,2013-03-20 02:32:00,
2013-03-19 22:42:00,53.0,15.0,-100.00,ENE,70,3.0,10.0,22,0.00,,,0.09,0.000000,,2013-03-20 02:42:00,
2013-03-19 22:52:00,51.0,9.0,-100.00,ENE,69,3.0,19.0,18,0.00,,,0.01,0.000000,,2013-03-20 02:52:00,
2013-03-19 23:22:00,51.0,9.0,-100.00,ENE,69,3.0,19.0,18,0.00,,,0.01,0.000000,,2013-03-20 03:22:00,
2013-03-19 23:34:00,51.0,9.0,-100.00,ENE,69,3.0,19.0,18,0.00,,,0.01,0.000000,,2013-03-20 03:34:00,
2013-03-19 23:43:00,51.0,9.0,-100.00,ENE,69,3.0,19.0,18,0.00,,,0.01,0.000000,,2013-03-20 03:43:00,
2013-03-19 23:52:00,49.0,7.0,-100.00,ENE,77,5.0,12.0,18,0.00,,,0.01,0.000000,,2013-03-20 03:52:00,